createdAt,value
2022-08-18T00:03:55.597Z,95331.88
2022-08-18T00:09:04.934Z,95333.75
2022-08-18T00:14:08.242Z,95376.16
2022-08-18T00:19:09.883Z,95381.56
2022-08-18T00:24:11.639Z,95370.59
2022-08-18T00:29:13.206Z,95385.63
2022-08-18T00:34:14.866Z,95398.31
2022-08-18T00:39:16.866Z,95405.13
2022-08-18T00:44:18.418Z,95386.72
2022-08-18T00:49:19.986Z,95389.47
2022-08-18T00:54:29.186Z,95395.25
2022-08-18T00:59:33.555Z,95409.94
2022-08-18T01:04:44.397Z,95425.63
2022-08-18T01:09:51.932Z,95421.25
2022-08-18T01:14:54.922Z,95415.25
2022-08-18T01:20:16.915Z,95419.72
2022-08-18T01:25:40.147Z,95418.34
2022-08-18T01:30:50.930Z,95413.22
2022-08-18T01:35:54.274Z,95409.09
2022-08-18T01:41:23.170Z,95395.69
2022-08-18T01:46:20.265Z,95388.00
2022-08-18T01:51:40.126Z,95391.28
2022-08-18T01:56:43.436Z,95398.88
2022-08-18T02:01:48.915Z,95392.50
2022-08-18T02:06:56.242Z,95384.59
2022-08-18T02:12:00.141Z,95365.84
2022-08-18T02:17:04.667Z,95341.38
2022-08-18T02:22:08.067Z,95350.97
2022-08-18T02:27:11.893Z,95330.53
2022-08-18T02:32:13.973Z,95339.91
2022-08-18T02:37:15.897Z,95329.16
2022-08-18T02:42:18.153Z,95329.34
2022-08-18T02:47:20.873Z,95326.75
2022-08-18T02:52:23.087Z,95342.50
2022-08-18T02:57:24.723Z,95337.97
2022-08-18T03:02:26.470Z,95338.47
2022-08-18T03:07:28.106Z,95339.19
2022-08-18T03:12:29.659Z,95336.88
2022-08-18T03:17:31.919Z,95326.97
2022-08-18T03:22:34.246Z,95326.56
2022-08-18T03:27:36.063Z,95337.56
2022-08-18T03:32:37.705Z,95329.16
2022-08-18T03:37:39.294Z,95323.16
2022-08-18T03:42:40.916Z,95324.63
2022-08-18T03:47:42.487Z,95333.47
2022-08-18T03:52:48.654Z,95339.81
2022-08-18T03:57:52.994Z,95343.16
2022-08-18T04:02:55.047Z,95360.53
2022-08-18T04:07:57.656Z,95371.03
2022-08-18T04:12:59.330Z,95372.94
2022-08-18T04:18:04.704Z,95374.56
2022-08-18T04:23:06.607Z,95372.31
2022-08-18T04:28:08.231Z,95369.31
2022-08-18T04:33:09.839Z,95372.16
2022-08-18T04:38:11.575Z,95373.00
2022-08-18T04:43:15.543Z,95366.44
2022-08-18T04:48:17.681Z,95373.34
2022-08-18T04:53:38.190Z,95371.31
2022-08-18T04:58:39.905Z,95382.75
2022-08-18T05:03:49.940Z,95386.31
2022-08-18T05:08:54.584Z,95384.56
2022-08-18T05:14:00.229Z,95389.16
2022-08-18T05:19:14.934Z,95377.50
2022-08-18T05:24:17.467Z,95365.06
2022-08-18T05:29:23.539Z,95356.69
2022-08-18T05:34:25.716Z,95367.34
2022-08-18T05:39:40.355Z,95380.25
2022-08-18T05:44:46.008Z,95400.03
2022-08-18T05:49:49.373Z,95393.22
2022-08-18T05:55:19.742Z,95394.47
2022-08-18T06:00:23.959Z,95381.78
2022-08-18T06:05:32.664Z,95375.72
2022-08-18T06:10:35.882Z,95388.41
2022-08-18T06:15:39.600Z,95388.41
2022-08-18T06:20:50.479Z,95415.84
2022-08-18T06:26:11.057Z,95415.13
2022-08-18T06:31:30.425Z,95420.00
2022-08-18T06:36:45.070Z,95430.47
2022-08-18T06:41:49.480Z,95420.09
2022-08-18T06:46:56.391Z,95413.41
2022-08-18T06:51:58.091Z,95421.88
2022-08-18T06:56:59.934Z,95414.84
2022-08-18T07:02:18.521Z,95420.00
2022-08-18T07:07:43.435Z,95419.28
2022-08-18T07:12:45.194Z,95422.94
2022-08-18T07:17:49.452Z,95424.03
2022-08-18T07:23:01.512Z,95418.25
2022-08-18T07:28:04.843Z,95428.19
2022-08-18T07:33:19.246Z,95412.44
2022-08-18T07:38:43.867Z,95408.16
2022-08-18T07:43:52.262Z,95404.34
2022-08-18T07:48:54.077Z,95419.34
2022-08-18T07:54:31.230Z,95421.69
2022-08-18T07:59:45.195Z,95415.66
2022-08-18T08:04:49.867Z,95399.44
2022-08-18T08:10:22.570Z,95394.88
2022-08-18T08:15:49.642Z,95388.53
2022-08-18T08:20:59.498Z,95375.63
2022-08-18T08:26:24.549Z,95363.72
2022-08-18T08:31:47.727Z,95357.94
2022-08-18T08:36:59.161Z,95345.78
2022-08-18T08:42:31.874Z,95347.59
2022-08-18T08:47:36.905Z,95356.00
2022-08-18T08:52:43.735Z,95364.69
2022-08-18T08:57:56.033Z,95371.09
2022-08-18T09:03:00.728Z,95366.25
2022-08-18T09:08:34.110Z,95342.28
2022-08-18T09:13:50.955Z,95337.47
2022-08-18T09:19:19.291Z,95327.50
2022-08-18T09:24:29.108Z,95304.06
2022-08-18T09:29:54.274Z,95303.53
2022-08-18T09:35:25.407Z,95294.88
2022-08-18T09:46:12.374Z,95296.81
2022-08-18T09:51:31.499Z,95308.28
2022-08-18T10:02:33.034Z,95323.03
2022-08-18T10:07:43.239Z,95328.28
2022-08-18T10:13:03.739Z,95325.44
2022-08-18T10:18:26.859Z,95319.75
2022-08-18T10:29:52.921Z,95341.53
2022-08-18T10:34:55.560Z,95344.47
2022-08-18T10:40:03.230Z,95343.66
2022-08-18T10:45:25.903Z,95318.31
2022-08-18T10:50:50.081Z,95312.16
2022-08-18T10:56:09.362Z,95302.78
2022-08-18T11:01:36.955Z,95311.28
2022-08-18T11:06:49.051Z,95310.53
2022-08-18T11:12:00.026Z,95301.16
2022-08-18T11:17:09.118Z,95307.34
2022-08-18T11:22:36.509Z,95288.97
2022-08-18T11:27:46.651Z,95275.38
2022-08-18T11:32:52.198Z,95272.50
2022-08-18T11:37:59.868Z,95283.75
2022-08-18T11:43:29.736Z,95284.28
2022-08-18T11:48:51.585Z,95257.13
2022-08-18T11:54:00.618Z,95279.34
2022-08-18T11:59:04.568Z,95264.97
2022-08-18T12:04:44.847Z,95266.88
2022-08-18T12:10:17.693Z,95260.19
2022-08-18T12:15:24.643Z,95258.50
2022-08-18T12:20:27.560Z,95247.31
2022-08-18T12:25:29.297Z,95219.34
2022-08-18T12:30:31.093Z,95215.22
2022-08-18T12:35:34.880Z,95208.75
2022-08-18T12:40:36.970Z,95201.50
2022-08-18T12:45:39.276Z,95191.47
2022-08-18T12:50:54.641Z,95179.63
2022-08-18T12:56:01.163Z,95174.63
2022-08-18T13:01:03.780Z,95165.53
2022-08-18T13:06:06.039Z,95156.44
2022-08-18T13:11:15.225Z,95158.66
2022-08-18T13:16:38.924Z,95168.75
2022-08-18T13:21:49.617Z,95174.69
2022-08-18T13:26:51.669Z,95172.84
2022-08-18T13:31:58.234Z,95183.78
2022-08-18T13:36:59.883Z,95181.19
2022-08-18T13:42:21.562Z,95174.22
2022-08-18T13:47:27.649Z,95163.31
2022-08-18T13:52:41.217Z,95160.34
2022-08-18T13:57:50.293Z,95147.91
2022-08-18T14:02:57.279Z,95149.34
2022-08-18T14:07:59.055Z,95158.38
2022-08-18T14:13:20.158Z,95163.25
2022-08-18T14:18:29.057Z,95154.03
2022-08-18T14:23:52.950Z,95131.44
2022-08-18T14:28:55.554Z,95118.41
2022-08-18T14:33:59.718Z,95108.41
2022-08-18T14:39:06.106Z,95100.50
2022-08-18T14:44:15.328Z,95094.84
2022-08-18T14:49:22.148Z,95091.06
2022-08-18T14:54:32.029Z,95088.78
2022-08-18T14:59:34.688Z,95083.69
2022-08-18T15:04:55.927Z,95073.69
2022-08-18T15:10:15.339Z,95067.84
2022-08-18T15:15:22.505Z,95062.97
2022-08-18T15:20:29.770Z,95046.78
2022-08-18T15:25:47.137Z,95049.81
2022-08-18T15:36:16.676Z,95026.13
2022-08-18T15:41:43.902Z,95036.84
2022-08-18T15:46:51.302Z,95031.97
2022-08-18T15:51:55.173Z,95023.69
2022-08-18T15:56:58.851Z,95030.44
2022-08-18T16:02:01.037Z,95029.47
2022-08-18T16:07:02.729Z,95021.91
2022-08-18T16:12:04.677Z,95029.00
2022-08-18T16:17:09.440Z,95028.69
2022-08-18T16:22:19.803Z,95013.72
2022-08-18T16:27:24.228Z,95013.66
2022-08-18T16:32:26.369Z,95016.63
2022-08-18T16:37:28.150Z,95022.41
2022-08-18T16:42:32.815Z,95022.19
2022-08-18T16:47:39.065Z,95019.72
2022-08-18T16:52:41.894Z,95017.03
2022-08-18T16:58:03.220Z,95011.06
2022-08-18T17:03:24.942Z,95005.66
2022-08-18T17:08:26.605Z,94995.81
2022-08-18T17:13:28.703Z,94994.63
2022-08-18T17:18:30.562Z,94991.16
2022-08-18T17:23:34.109Z,94987.91
2022-08-18T17:28:50.195Z,94986.50
2022-08-18T17:33:57.470Z,94980.47
2022-08-18T17:39:02.855Z,94977.00
2022-08-18T17:44:06.840Z,94971.44
2022-08-18T17:49:54.401Z,94966.47
2022-08-18T17:55:20.107Z,94968.09
2022-08-18T18:00:22.283Z,94975.56
2022-08-18T18:05:32.207Z,94984.69
2022-08-18T18:16:29.275Z,95004.56
2022-08-18T18:22:00.077Z,95016.09
2022-08-18T18:26:55.892Z,95025.94
2022-08-18T18:32:02.497Z,95019.59
2022-08-18T18:37:04.285Z,95022.72
2022-08-18T18:42:15.821Z,95025.78
2022-08-18T18:47:40.434Z,95046.13
2022-08-18T18:53:08.412Z,95049.53
2022-08-18T18:58:55.507Z,95075.13
2022-08-18T19:04:10.268Z,95087.41
2022-08-18T19:09:37.590Z,95099.94
2022-08-18T19:15:05.012Z,95109.13
2022-08-18T19:20:15.932Z,95108.19
2022-08-18T19:25:36.312Z,95118.53
2022-08-18T19:30:42.782Z,95116.59
2022-08-18T19:36:04.598Z,95138.00
2022-08-18T19:41:20.267Z,95134.81
2022-08-18T19:46:38.289Z,95127.06
2022-08-18T19:51:42.749Z,95120.00
2022-08-18T19:56:56.552Z,95124.63
2022-08-18T20:02:35.113Z,95121.91
2022-08-18T20:07:40.135Z,95124.81
2022-08-18T20:13:23.358Z,95141.13
2022-08-18T20:18:35.860Z,95141.13
2022-08-18T20:23:59.642Z,95127.06
2022-08-18T20:29:02.348Z,95131.09
2022-08-18T20:34:14.010Z,95146.25
2022-08-18T20:39:35.342Z,95156.56
2022-08-18T20:44:50.038Z,95153.50
2022-08-18T20:50:07.301Z,95173.81
2022-08-18T20:55:46.311Z,95182.72
2022-08-18T21:00:55.658Z,95201.84
2022-08-18T21:06:03.224Z,95214.59
2022-08-18T21:11:20.579Z,95229.91
2022-08-18T21:16:45.169Z,95211.66
2022-08-18T21:21:53.937Z,95219.31
2022-08-18T21:26:58.945Z,95219.06
2022-08-18T21:32:17.056Z,95225.69
2022-08-18T21:37:19.801Z,95240.69
2022-08-18T21:42:32.646Z,95246.50
2022-08-18T21:47:34.773Z,95252.31
2022-08-18T21:52:40.390Z,95253.81
2022-08-18T21:58:17.593Z,95249.94
2022-08-18T22:03:23.295Z,95253.50
2022-08-18T22:08:27.633Z,95255.06
2022-08-18T22:13:48.135Z,95257.59
2022-08-18T22:18:50.486Z,95256.28
2022-08-18T22:24:11.379Z,95253.94
2022-08-18T22:29:26.923Z,95253.88
2022-08-18T22:34:32.969Z,95256.09
2022-08-18T22:39:39.370Z,95258.34
2022-08-18T22:44:42.231Z,95262.63
2022-08-18T22:49:45.312Z,95267.38
2022-08-18T22:54:47.155Z,95259.72
2022-08-18T22:59:52.692Z,95250.72
2022-08-18T23:04:54.461Z,95253.66
2022-08-18T23:09:56.385Z,95237.81
2022-08-18T23:14:58.965Z,95231.72
2022-08-18T23:20:00.733Z,95228.41
2022-08-18T23:25:09.185Z,95232.03
2022-08-18T23:30:12.738Z,95235.09
2022-08-18T23:35:15.603Z,95227.97
2022-08-18T23:40:19.475Z,95219.56
2022-08-18T23:45:21.275Z,95223.84
2022-08-18T23:50:23.878Z,95216.19
2022-08-18T23:55:28.921Z,95208.00
